Time;durP1;ratioP1;P1;durP2;ratioP2;P2;SDS_P1;SDS_P2;PMS_P1;PMS_P2;Temp;Humidity;BMP_temperature;BMP_pressure;BME280_temperature;BME280_humidity;BME280_pressure;Samples;Min_cycle;Max_cycle;Signal;HPM_P1;HPM_P2
2022/07/23 00:01:29;;;;;;;5.15;1.13;;;14.60;99.90;;;;;;5016577;28;20490;-76
2022/07/23 00:03:55;;;;;;;1.63;1.10;;;14.60;99.90;;;;;;5016320;28;20034;-76
2022/07/23 00:06:21;;;;;;;1.77;1.10;;;14.50;99.90;;;;;;5016459;28;20041;-76
2022/07/23 00:08:47;;;;;;;2.25;1.02;;;14.50;99.90;;;;;;4999992;28;20120;-76
2022/07/23 00:11:13;;;;;;;1.75;1.27;;;14.50;99.90;;;;;;5000004;28;20124;-76
2022/07/23 00:13:39;;;;;;;2.50;1.40;;;14.50;99.90;;;;;;4983788;28;20041;-75
2022/07/23 00:16:05;;;;;;;1.80;1.23;;;14.50;99.90;;;;;;5015595;28;20215;-76
2022/07/23 00:18:31;;;;;;;1.88;1.05;;;14.50;99.90;;;;;;5016524;28;20142;-76
2022/07/23 00:20:57;;;;;;;3.40;1.40;;;14.40;99.90;;;;;;4983942;28;20077;-76
2022/07/23 00:23:24;;;;;;;1.67;1.20;;;14.40;99.90;;;;;;5016047;28;20103;-76
2022/07/23 00:25:51;;;;;;;7.55;1.30;;;14.40;99.90;;;;;;5016087;28;20038;-76
2022/07/23 00:28:18;;;;;;;2.42;1.10;;;14.50;99.90;;;;;;4999652;28;20045;-76
2022/07/23 00:30:44;;;;;;;1.05;0.80;;;14.30;99.90;;;;;;5016253;28;20084;-77
2022/07/23 00:33:11;;;;;;;1.92;1.30;;;14.20;99.90;;;;;;4999594;28;20087;-76
2022/07/23 00:35:40;;;;;;;1.83;1.25;;;14.20;99.90;;;;;;4999705;28;20473;-76
2022/07/23 00:38:08;;;;;;;5.15;1.38;;;14.20;99.90;;;;;;5015658;28;20037;-76
2022/07/23 00:40:34;;;;;;;2.47;1.35;;;14.10;99.90;;;;;;4999473;28;20037;-76
2022/07/23 00:43:00;;;;;;;4.43;1.30;;;14.10;99.90;;;;;;5015518;28;20092;-76
2022/07/23 00:45:26;;;;;;;2.08;1.17;;;14.10;99.90;;;;;;5015849;28;20099;-76
2022/07/23 00:47:52;;;;;;;1.35;1.15;;;14.10;99.90;;;;;;5015831;28;20450;-76
2022/07/23 00:50:18;;;;;;;1.67;1.13;;;14.00;99.90;;;;;;5017009;28;20101;-76
2022/07/23 00:52:44;;;;;;;1.17;0.80;;;14.00;99.90;;;;;;4999410;28;20041;-76
2022/07/23 00:55:13;;;;;;;3.67;1.40;;;13.90;99.90;;;;;;5015560;28;20041;-76
2022/07/23 00:57:41;;;;;;;2.45;1.60;;;13.90;99.90;;;;;;5015419;28;20106;-76
2022/07/23 01:00:10;;;;;;;2.42;1.63;;;13.90;99.90;;;;;;4999192;28;20037;-76
2022/07/23 01:02:36;;;;;;;1.83;1.17;;;13.80;99.90;;;;;;5015434;28;20092;-76
2022/07/23 01:05:05;;;;;;;1.50;1.05;;;13.80;99.90;;;;;;5015735;28;20073;-76
2022/07/23 01:07:31;;;;;;;2.58;1.48;;;13.80;99.90;;;;;;4983594;28;20084;-76
2022/07/23 01:09:57;;;;;;;3.83;1.67;;;13.70;99.90;;;;;;5015416;28;20072;-76
2022/07/23 01:12:23;;;;;;;3.08;1.55;;;14.00;99.90;;;;;;5015354;28;20052;-76
2022/07/23 01:14:57;;;;;;;2.13;1.30;;;13.70;99.90;;;;;;4999061;28;20049;-76
2022/07/23 01:17:22;;;;;;;2.20;1.30;;;13.70;99.90;;;;;;5015365;28;20054;-76
2022/07/23 01:19:48;;;;;;;1.35;0.95;;;13.60;99.90;;;;;;4998157;28;20037;-76
2022/07/23 01:22:16;;;;;;;1.50;1.00;;;13.60;99.90;;;;;;5015099;28;20412;-76
2022/07/23 01:24:42;;;;;;;2.47;1.40;;;13.60;99.90;;;;;;5000717;28;20038;-76
2022/07/23 01:27:07;;;;;;;2.00;1.08;;;13.60;99.90;;;;;;5015476;28;20186;-76
2022/07/23 01:29:33;;;;;;;1.65;1.25;;;13.60;99.90;;;;;;5015452;28;20038;-76
2022/07/23 01:31:59;;;;;;;4.65;1.27;;;13.50;99.90;;;;;;4998702;28;20041;-76
2022/07/23 01:34:24;;;;;;;3.80;1.38;;;13.50;99.90;;;;;;4998917;28;20042;-76
2022/07/23 01:36:50;;;;;;;1.95;1.17;;;13.50;99.90;;;;;;4998740;28;20081;-76
2022/07/23 01:39:16;;;;;;;2.72;1.55;;;13.50;99.90;;;;;;5015014;28;20038;-76
2022/07/23 01:41:41;;;;;;;3.15;1.33;;;13.40;99.90;;;;;;4998472;28;20038;-76
2022/07/23 01:44:07;;;;;;;2.45;1.73;;;13.50;99.90;;;;;;4998630;28;20042;-75
2022/07/23 01:46:33;;;;;;;1.92;1.33;;;13.60;99.90;;;;;;5015094;28;20103;-76
2022/07/23 01:48:58;;;;;;;2.13;1.30;;;13.40;99.90;;;;;;4982426;28;20422;-76
2022/07/23 01:51:24;;;;;;;1.88;1.40;;;13.40;99.90;;;;;;5015238;28;20448;-76
2022/07/23 01:53:50;;;;;;;4.95;1.70;;;13.40;99.90;;;;;;4998869;28;20077;-76
2022/07/23 01:56:16;;;;;;;3.03;1.40;;;13.40;99.90;;;;;;5014980;28;20132;-76
2022/07/23 01:58:41;;;;;;;1.50;1.27;;;13.30;99.90;;;;;;4998653;28;20050;-76
2022/07/23 02:01:07;;;;;;;2.38;1.45;;;13.40;99.90;;;;;;4998629;28;20504;-76
2022/07/23 02:03:33;;;;;;;3.05;1.55;;;13.40;99.90;;;;;;4982257;28;20132;-76
2022/07/23 02:05:58;;;;;;;5.93;1.58;;;13.30;99.90;;;;;;4998453;28;20829;-76
2022/07/23 02:08:24;;;;;;;1.58;1.35;;;13.30;99.90;;;;;;5014683;28;20091;-76
2022/07/23 02:10:51;;;;;;;1.45;0.90;;;13.30;99.90;;;;;;4982245;28;20033;-76
2022/07/23 02:13:17;;;;;;;2.38;1.48;;;13.30;99.90;;;;;;4998644;28;20040;-76
2022/07/23 02:15:43;;;;;;;2.53;1.63;;;13.30;99.90;;;;;;4982129;28;20080;-76
2022/07/23 02:18:08;;;;;;;3.13;1.70;;;13.30;99.90;;;;;;5014551;28;20085;-76
2022/07/23 02:20:34;;;;;;;2.53;1.40;;;13.20;99.90;;;;;;4998309;28;20463;-76
2022/07/23 02:23:00;;;;;;;3.80;1.85;;;13.20;99.90;;;;;;4998122;28;20046;-76
2022/07/23 02:25:25;;;;;;;2.95;1.65;;;13.20;99.90;;;;;;5014548;28;20087;-76
2022/07/23 02:27:51;;;;;;;2.88;1.63;;;13.20;99.90;;;;;;5014809;28;20037;-76
2022/07/23 02:30:17;;;;;;;3.72;1.30;;;13.10;99.90;;;;;;4983327;28;20041;-76
2022/07/23 02:32:42;;;;;;;2.22;1.20;;;13.10;99.90;;;;;;5001897;28;20136;-76
2022/07/23 02:35:08;;;;;;;3.05;1.60;;;13.10;99.90;;;;;;5018542;28;20044;-76
2022/07/23 02:37:34;;;;;;;3.33;1.50;;;13.00;99.90;;;;;;5018405;28;20044;-76
2022/07/23 02:40:00;;;;;;;2.58;1.50;;;13.00;99.90;;;;;;5018040;28;20041;-76
2022/07/23 02:42:25;;;;;;;1.33;1.00;;;13.00;99.90;;;;;;5001592;28;20402;-76
2022/07/23 02:44:51;;;;;;;3.85;1.98;;;13.00;99.90;;;;;;5001668;28;20033;-76
2022/07/23 02:47:17;;;;;;;3.08;1.70;;;12.90;99.90;;;;;;5001550;28;20048;-76
2022/07/23 02:49:43;;;;;;;3.00;1.60;;;12.90;99.90;;;;;;5001489;28;20041;-76
2022/07/23 02:52:10;;;;;;;3.03;1.73;;;12.80;99.90;;;;;;5017751;28;20041;-76
2022/07/23 02:54:36;;;;;;;1.92;1.52;;;12.80;99.90;;;;;;5001598;28;20056;-76
2022/07/23 02:57:02;;;;;;;3.30;1.60;;;12.80;99.90;;;;;;5001629;28;20525;-76
2022/07/23 02:59:28;;;;;;;1.45;1.20;;;12.80;99.90;;;;;;5001410;28;20037;-76
2022/07/23 03:01:53;;;;;;;2.30;1.50;;;12.80;99.90;;;;;;5001382;28;20045;-76
2022/07/23 03:04:22;;;;;;;2.17;1.50;;;12.70;99.90;;;;;;5001401;28;20034;-76
2022/07/23 03:06:47;;;;;;;1.98;1.42;;;12.70;99.90;;;;;;5017570;28;20041;-76
2022/07/23 03:09:13;;;;;;;2.95;1.75;;;12.60;99.90;;;;;;4984971;28;20041;-76
2022/07/23 03:11:39;;;;;;;1.52;1.20;;;12.60;99.90;;;;;;5017443;28;20497;-76
2022/07/23 03:14:05;;;;;;;2.58;1.30;;;12.60;99.90;;;;;;5001228;28;20037;-76
2022/07/23 03:16:31;;;;;;;2.38;1.45;;;12.90;99.90;;;;;;4997584;28;20115;-76
2022/07/23 03:18:57;;;;;;;2.47;1.40;;;12.60;99.90;;;;;;5014398;28;20049;-76
2022/07/23 03:21:22;;;;;;;1.92;1.20;;;12.60;99.90;;;;;;4997616;28;20045;-76
2022/07/23 03:23:48;;;;;;;3.25;1.98;;;12.50;99.90;;;;;;5014018;28;20073;-76
2022/07/23 03:26:14;;;;;;;2.80;1.55;;;12.50;99.90;;;;;;5014014;28;20042;-76
2022/07/23 03:28:39;;;;;;;2.60;1.40;;;12.50;99.90;;;;;;4997654;28;20478;-76
2022/07/23 03:31:05;;;;;;;3.55;1.52;;;12.90;99.90;;;;;;4997549;28;20378;-76
2022/07/23 03:33:30;;;;;;;2.20;1.50;;;12.70;99.90;;;;;;4997843;28;20502;-76
2022/07/23 03:35:56;;;;;;;4.45;1.70;;;12.40;99.90;;;;;;4997744;28;20478;-76
2022/07/23 03:38:22;;;;;;;2.80;1.73;;;13.00;99.90;;;;;;5013697;28;20037;-76
2022/07/23 03:40:47;;;;;;;2.30;1.58;;;12.40;99.90;;;;;;5013697;28;20042;-76
2022/07/23 03:43:13;;;;;;;2.80;1.35;;;12.40;99.90;;;;;;4996603;28;20048;-76
2022/07/23 03:45:39;;;;;;;2.92;1.60;;;12.40;99.90;;;;;;5013615;28;20045;-76
2022/07/23 03:48:05;;;;;;;3.10;1.83;;;12.30;99.90;;;;;;5013793;28;20037;-76
2022/07/23 03:50:30;;;;;;;2.03;1.42;;;12.30;99.90;;;;;;5013850;28;20033;-76
2022/07/23 03:52:56;;;;;;;3.45;1.75;;;12.30;99.90;;;;;;4997153;28;20071;-76
2022/07/23 03:55:22;;;;;;;4.10;1.95;;;12.30;99.90;;;;;;5013428;28;20088;-76
2022/07/23 03:57:47;;;;;;;2.33;1.88;;;12.30;99.90;;;;;;4997154;28;20057;-76
2022/07/23 04:00:13;;;;;;;3.13;1.63;;;12.90;99.90;;;;;;5013273;28;20045;-76
2022/07/23 04:02:40;;;;;;;2.55;1.95;;;12.30;99.90;;;;;;4980704;28;20046;-76
2022/07/23 04:05:06;;;;;;;4.38;1.92;;;12.20;99.90;;;;;;4997165;28;20042;-76
2022/07/23 04:07:32;;;;;;;4.82;1.92;;;12.30;99.90;;;;;;4997804;28;20044;-75
2022/07/23 04:09:58;;;;;;;3.17;1.90;;;12.30;99.90;;;;;;5013458;28;20128;-77
2022/07/23 04:12:24;;;;;;;3.00;1.80;;;12.30;99.90;;;;;;5013114;28;20045;-76
2022/07/23 04:14:50;;;;;;;6.10;2.22;;;12.30;99.90;;;;;;5013029;28;20477;-76
2022/07/23 04:17:16;;;;;;;2.35;1.75;;;12.40;99.90;;;;;;5012872;28;20061;-76
2022/07/23 04:19:43;;;;;;;2.75;1.83;;;12.30;99.90;;;;;;4996951;28;20478;-76
2022/07/23 04:22:10;;;;;;;2.95;1.70;;;12.40;99.90;;;;;;5012914;28;20142;-76
2022/07/23 04:24:36;;;;;;;2.22;1.50;;;12.70;99.90;;;;;;5012926;28;20041;-76
2022/07/23 04:27:02;;;;;;;2.13;1.40;;;12.40;99.90;;;;;;5013143;28;20045;-76
2022/07/23 04:29:27;;;;;;;2.45;1.63;;;12.50;99.90;;;;;;4996689;28;20045;-76
2022/07/23 04:31:53;;;;;;;5.65;2.20;;;12.50;99.90;;;;;;5012769;28;20096;-76
2022/07/23 04:34:19;;;;;;;2.47;1.73;;;12.40;99.90;;;;;;4996425;28;20041;-76
2022/07/23 04:36:45;;;;;;;2.85;1.50;;;12.50;99.90;;;;;;4997499;28;20460;-76
2022/07/23 04:39:10;;;;;;;3.55;1.70;;;12.50;99.90;;;;;;5012767;28;20072;-76
2022/07/23 04:41:36;;;;;;;2.75;1.80;;;12.50;99.90;;;;;;5012561;28;20046;-76
2022/07/23 04:44:03;;;;;;;2.33;1.52;;;12.50;99.90;;;;;;4996149;28;20129;-76
2022/07/23 04:46:28;;;;;;;3.65;1.90;;;12.60;99.90;;;;;;5012549;28;20406;-76
2022/07/23 04:48:54;;;;;;;4.03;1.67;;;12.70;99.90;;;;;;5012786;28;20041;-76
2022/07/23 04:51:20;;;;;;;2.10;1.55;;;12.70;99.90;;;;;;4996356;28;20042;-76
2022/07/23 04:53:46;;;;;;;2.97;1.73;;;12.70;99.90;;;;;;4995255;28;20044;-76
2022/07/23 04:56:12;;;;;;;4.68;1.55;;;13.50;99.90;;;;;;4995929;28;20042;-76
2022/07/23 04:58:37;;;;;;;6.43;1.88;;;12.80;99.90;;;;;;4995959;28;20049;-76
2022/07/23 05:01:03;;;;;;;1.90;1.27;;;12.80;99.90;;;;;;4996080;28;20405;-76
2022/07/23 05:03:29;;;;;;;3.38;1.52;;;12.90;99.90;;;;;;5012555;28;20149;-76
2022/07/23 05:05:55;;;;;;;1.90;1.33;;;10.30;99.90;;;;;;5012098;28;20080;-77
2022/07/23 05:08:21;;;;;;;2.88;1.83;;;13.00;99.90;;;;;;4995847;28;20049;-77
2022/07/23 05:10:46;;;;;;;3.13;1.48;;;13.10;99.90;;;;;;5012557;28;20041;-76
2022/07/23 05:13:14;;;;;;;2.28;1.63;;;13.20;99.90;;;;;;4996188;28;20045;-76
2022/07/23 05:15:39;;;;;;;2.47;1.45;;;13.30;99.90;;;;;;4995774;28;20129;-76
2022/07/23 05:18:09;;;;;;;2.05;1.52;;;13.40;99.90;;;;;;5011820;28;20092;-76
2022/07/23 05:20:35;;;;;;;3.75;1.85;;;13.40;99.90;;;;;;5012049;28;20052;-76
2022/07/23 05:23:00;;;;;;;3.97;1.83;;;13.50;99.90;;;;;;5011899;28;20046;-76
2022/07/23 05:25:26;;;;;;;4.20;1.85;;;13.60;99.90;;;;;;4995596;28;20062;-76
2022/07/23 05:27:52;;;;;;;3.13;1.67;;;13.70;99.90;;;;;;5012161;28;20058;-76
2022/07/23 05:30:18;;;;;;;3.30;1.75;;;13.70;99.90;;;;;;4995578;28;20049;-76
2022/07/23 05:32:43;;;;;;;2.67;1.70;;;13.70;99.90;;;;;;5012249;28;20045;-76
2022/07/23 05:35:09;;;;;;;2.38;1.23;;;13.80;99.90;;;;;;4995844;28;20037;-77
2022/07/23 05:37:35;;;;;;;2.83;1.58;;;14.00;99.90;;;;;;5011820;28;20133;-76
2022/07/23 05:40:07;;;;;;;3.45;1.85;;;14.00;99.90;;;;;;5011781;28;20071;-76
2022/07/23 05:42:36;;;;;;;4.55;1.52;;;14.10;99.90;;;;;;5011832;28;20046;-76
2022/07/23 05:45:03;;;;;;;2.65;1.52;;;14.20;99.90;;;;;;4995679;28;20042;-76
2022/07/23 05:47:38;;;;;;;3.03;2.00;;;14.20;99.90;;;;;;4995932;28;20034;-76
2022/07/23 05:50:04;;;;;;;2.63;1.70;;;14.30;99.90;;;;;;4995373;28;20137;-76
2022/07/23 05:52:30;;;;;;;2.60;1.73;;;14.40;99.90;;;;;;4979187;28;20128;-76
2022/07/23 05:54:56;;;;;;;3.60;1.30;;;14.50;99.90;;;;;;5011651;28;20092;-76
2022/07/23 05:57:21;;;;;;;2.88;1.80;;;14.50;99.90;;;;;;5011694;28;20084;-76
2022/07/23 05:59:47;;;;;;;4.10;1.67;;;14.60;99.90;;;;;;5011947;28;20046;-76
2022/07/23 06:02:12;;;;;;;2.28;1.33;;;14.70;99.90;;;;;;5011687;28;20048;-76
2022/07/23 06:04:38;;;;;;;4.90;1.55;;;14.80;99.90;;;;;;4995589;28;20042;-76
2022/07/23 06:07:04;;;;;;;3.20;1.67;;;14.90;99.90;;;;;;4999145;28;20129;-76
2022/07/23 06:09:29;;;;;;;2.80;1.30;;;15.00;99.90;;;;;;4999076;28;20038;-76
2022/07/23 06:11:55;;;;;;;6.00;1.35;;;15.10;99.90;;;;;;5015375;28;20390;-76
2022/07/23 06:14:21;;;;;;;2.45;1.10;;;15.20;99.90;;;;;;4998989;28;20042;-76
2022/07/23 06:16:46;;;;;;;1.63;1.20;;;15.30;99.90;;;;;;4998694;28;20061;-77
2022/07/23 06:19:12;;;;;;;3.00;1.40;;;15.50;99.90;;;;;;5015446;28;20132;-76
2022/07/23 06:21:38;;;;;;;2.17;1.25;;;15.50;99.90;;;;;;5015100;28;20044;-76
2022/07/23 06:24:03;;;;;;;2.00;1.20;;;15.60;99.90;;;;;;5015101;28;20516;-77
2022/07/23 06:26:29;;;;;;;1.48;1.15;;;15.70;99.90;;;;;;5015108;28;20129;-77
2022/07/23 06:28:55;;;;;;;0.93;0.85;;;15.80;99.90;;;;;;4998754;28;20457;-76
2022/07/23 06:31:21;;;;;;;2.53;1.08;;;15.90;99.90;;;;;;4998932;28;20441;-77
2022/07/23 06:33:46;;;;;;;1.42;0.90;;;16.10;99.90;;;;;;5015240;28;20092;-76
2022/07/23 06:36:12;;;;;;;1.52;0.63;;;16.10;99.90;;;;;;4998929;28;20050;-76
2022/07/23 06:38:38;;;;;;;2.05;1.00;;;16.30;99.90;;;;;;5014887;28;20048;-76
2022/07/23 06:41:03;;;;;;;2.42;1.08;;;16.30;99.90;;;;;;4998391;28;20486;-76
2022/07/23 06:43:31;;;;;;;1.27;0.80;;;16.40;99.90;;;;;;5014785;28;20034;-76
2022/07/23 06:45:56;;;;;;;2.50;0.80;;;16.50;99.90;;;;;;4998672;28;20092;-76
2022/07/23 06:48:22;;;;;;;0.60;0.60;;;16.60;99.90;;;;;;5014708;28;20444;-76
2022/07/23 06:50:48;;;;;;;0.60;0.60;;;16.60;99.90;;;;;;5014887;28;20139;-76
2022/07/23 06:53:14;;;;;;;1.10;0.65;;;17.10;99.90;;;;;;5015329;28;20095;-76
2022/07/23 06:55:40;;;;;;;0.82;0.70;;;16.90;99.90;;;;;;5015754;28;20056;-76
2022/07/23 06:58:06;;;;;;;0.88;0.60;;;16.90;99.90;;;;;;4998202;28;20046;-76
2022/07/23 07:00:32;;;;;;;0.60;0.50;;;17.00;99.90;;;;;;5014561;28;20053;-76
2022/07/23 07:02:58;;;;;;;1.23;0.57;;;17.10;99.90;;;;;;5014366;28;20124;-76
2022/07/23 07:05:25;;;;;;;0.55;0.50;;;17.20;99.90;;;;;;4998292;28;20125;-76
2022/07/23 07:07:51;;;;;;;0.50;0.47;;;17.30;99.90;;;;;;5014415;28;20128;-76
2022/07/23 07:10:17;;;;;;;3.20;0.60;;;17.40;99.90;;;;;;5014244;28;20521;-76
2022/07/23 07:12:43;;;;;;;0.73;0.40;;;17.50;99.90;;;;;;5014533;28;20046;-77
2022/07/23 07:15:09;;;;;;;0.88;0.52;;;17.50;99.90;;;;;;4998121;28;20401;-76
2022/07/23 07:17:34;;;;;;;3.67;0.52;;;17.50;99.90;;;;;;4996522;28;20601;-77
2022/07/23 07:20:00;;;;;;;0.43;0.43;;;17.50;99.90;;;;;;5014382;28;20437;-76
2022/07/23 07:22:26;;;;;;;0.40;0.40;;;17.60;99.90;;;;;;5014043;28;20042;-76
2022/07/23 07:24:51;;;;;;;1.08;0.50;;;17.80;99.90;;;;;;5014118;28;20038;-77
2022/07/23 07:27:17;;;;;;;3.05;0.63;;;17.90;99.90;;;;;;5014150;28;20034;-77
2022/07/23 07:29:43;;;;;;;1.38;0.70;;;18.10;99.90;;;;;;5013947;28;20041;-77
2022/07/23 07:32:08;;;;;;;0.47;0.30;;;18.40;99.90;;;;;;4997592;28;20532;-77
2022/07/23 07:34:34;;;;;;;0.43;0.35;;;18.30;99.90;;;;;;4997630;28;20070;-77
2022/07/23 07:37:00;;;;;;;0.47;0.47;;;18.20;99.90;;;;;;5014075;28;20060;-76
2022/07/23 07:39:26;;;;;;;0.75;0.60;;;18.20;99.90;;;;;;5013801;28;20057;-76
2022/07/23 07:41:51;;;;;;;0.55;0.55;;;18.20;99.90;;;;;;5013726;28;20042;-76
2022/07/23 07:44:17;;;;;;;0.70;0.40;;;18.00;99.90;;;;;;5014031;28;20041;-76
2022/07/23 07:46:43;;;;;;;0.30;0.30;;;18.00;99.90;;;;;;5013944;28;20379;-76
2022/07/23 07:49:08;;;;;;;1.33;0.40;;;18.00;99.90;;;;;;4997269;28;20038;-76
2022/07/23 07:51:34;;;;;;;0.63;0.40;;;18.10;99.90;;;;;;5013447;28;20046;-77
2022/07/23 07:54:01;;;;;;;0.30;0.30;;;18.20;99.90;;;;;;4997174;28;20202;-77
2022/07/23 07:56:27;;;;;;;0.43;0.40;;;18.20;99.90;;;;;;5013450;28;20045;-76
2022/07/23 07:58:52;;;;;;;0.65;0.40;;;18.20;99.90;;;;;;4997277;28;20052;-76
2022/07/23 08:01:19;;;;;;;0.30;0.30;;;18.10;99.90;;;;;;5013496;28;20077;-77
2022/07/23 08:03:45;;;;;;;0.68;0.40;;;18.00;99.90;;;;;;4997211;28;20493;-77
2022/07/23 08:06:11;;;;;;;0.50;0.50;;;18.00;99.90;;;;;;4997210;28;20397;-77
2022/07/23 08:08:37;;;;;;;0.40;0.40;;;18.00;99.90;;;;;;4996933;28;20037;-77
2022/07/23 08:11:03;;;;;;;1.13;0.50;;;17.90;99.90;;;;;;5013444;28;20045;-77
2022/07/23 08:13:28;;;;;;;0.52;0.30;;;17.80;99.90;;;;;;5013113;28;20042;-77
2022/07/23 08:15:54;;;;;;;0.77;0.50;;;17.60;99.90;;;;;;4980322;28;20125;-77
2022/07/23 08:18:20;;;;;;;0.30;0.30;;;17.50;99.90;;;;;;5012750;28;20049;-77
2022/07/23 08:20:45;;;;;;;0.60;0.50;;;17.50;99.90;;;;;;5012941;28;20045;-77
2022/07/23 08:23:11;;;;;;;0.40;0.40;;;17.60;99.90;;;;;;5012815;28;20143;-77
2022/07/23 08:25:39;;;;;;;0.52;0.47;;;17.80;99.90;;;;;;4996571;28;20405;-77
2022/07/23 08:28:08;;;;;;;0.30;0.30;;;18.10;99.90;;;;;;4996361;28;20045;-77
2022/07/23 08:30:36;;;;;;;0.77;0.50;;;18.50;99.90;;;;;;5012780;28;20034;-76
2022/07/23 08:33:04;;;;;;;0.32;0.28;;;19.00;99.90;;;;;;4996744;28;20052;-76
2022/07/23 08:35:42;;;;;;;0.60;0.47;;;19.50;99.90;;;;;;5012838;28;20046;-77
2022/07/23 08:38:09;;;;;;;0.20;0.20;;;19.30;99.90;;;;;;4996699;28;20049;-77
2022/07/23 08:40:41;;;;;;;0.20;0.20;;;19.20;99.90;;;;;;5012675;28;20053;-77
2022/07/23 08:43:09;;;;;;;0.60;0.40;;;19.10;99.90;;;;;;4996158;28;20046;-77
2022/07/23 08:45:43;;;;;;;0.30;0.25;;;18.80;99.90;;;;;;5012547;28;20045;-77
2022/07/23 08:48:19;;;;;;;0.30;0.30;;;18.70;99.90;;;;;;5012802;28;20506;-77
2022/07/23 08:50:48;;;;;;;0.20;0.20;;;18.60;99.90;;;;;;5012468;28;20038;-77
2022/07/23 08:53:16;;;;;;;0.55;0.43;;;18.80;99.90;;;;;;5012389;28;20493;-77
2022/07/23 08:55:46;;;;;;;0.20;0.20;;;19.20;99.90;;;;;;4996293;28;20103;-77
2022/07/23 08:58:12;;;;;;;0.22;0.20;;;19.30;99.90;;;;;;5012243;28;20054;-77
2022/07/23 09:00:38;;;;;;;1.13;0.30;;;19.20;99.90;;;;;;5012303;28;20037;-77
2022/07/23 09:03:04;;;;;;;0.30;0.30;;;19.10;99.90;;;;;;5012124;28;20409;-77
2022/07/23 09:05:30;;;;;;;0.30;0.30;;;19.10;99.90;;;;;;5012322;28;20535;-77
2022/07/23 09:08:03;;;;;;;0.20;0.20;;;19.10;99.90;;;;;;4996154;28;20072;-77
2022/07/23 09:10:29;;;;;;;0.30;0.30;;;19.00;99.90;;;;;;5012301;28;20045;-78
2022/07/23 09:12:54;;;;;;;1.27;0.40;;;19.00;99.90;;;;;;4996201;28;20049;-77
2022/07/23 09:15:20;;;;;;;0.28;0.20;;;19.60;99.90;;;;;;5012092;28;20133;-77
2022/07/23 09:17:46;;;;;;;1.20;0.40;;;19.50;99.90;;;;;;4996292;28;20569;-77
2022/07/23 09:20:16;;;;;;;0.65;0.25;;;19.80;99.90;;;;;;4996153;28;20064;-77
2022/07/23 09:22:46;;;;;;;0.60;0.40;;;19.80;99.90;;;;;;4995583;28;20054;-77
2022/07/23 09:25:18;;;;;;;0.52;0.20;;;19.80;99.90;;;;;;4995872;28;20068;-77
2022/07/23 09:27:52;;;;;;;0.28;0.28;;;19.80;99.90;;;;;;5011868;28;20045;-77
2022/07/23 09:30:18;;;;;;;0.68;0.30;;;19.80;99.90;;;;;;5011804;28;20037;-77
2022/07/23 09:32:44;;;;;;;0.95;0.40;;;19.50;99.90;;;;;;4995409;28;20048;-78
2022/07/23 09:35:10;;;;;;;0.22;0.10;;;19.70;99.90;;;;;;4995478;28;20045;-77
2022/07/23 09:37:36;;;;;;;0.10;0.10;;;19.90;99.90;;;;;;5011929;28;20559;-77
2022/07/23 09:40:11;;;;;;;0.75;0.50;;;20.10;99.90;;;;;;5013961;28;20041;-78
2022/07/23 09:42:37;;;;;;;0.28;0.22;;;20.20;99.90;;;;;;5002388;28;20082;-77
2022/07/23 09:45:03;;;;;;;0.28;0.20;;;20.20;99.90;;;;;;5018288;28;20096;-77
2022/07/23 09:47:31;;;;;;;1.23;0.30;;;20.30;99.90;;;;;;5001811;28;20034;-78
2022/07/23 09:50:19;;;;;;;0.60;0.30;;;20.30;99.90;;;;;;5018489;28;20091;-77
2022/07/23 09:52:48;;;;;;;0.52;0.28;;;20.40;99.90;;;;;;5018043;28;20049;-77
2022/07/23 09:55:15;;;;;;;0.52;0.30;;;20.50;99.90;;;;;;5018112;28;20107;-77
2022/07/23 09:57:44;;;;;;;0.32;0.30;;;20.50;99.90;;;;;;5018453;28;20041;-77
2022/07/23 10:00:13;;;;;;;0.20;0.20;;;20.50;99.90;;;;;;5018113;28;20053;-77
2022/07/23 10:02:39;;;;;;;0.63;0.38;;;20.50;99.90;;;;;;5001669;28;20116;-77
2022/07/23 10:05:06;;;;;;;0.38;0.30;;;20.60;99.90;;;;;;5001936;28;20477;-77
2022/07/23 10:07:36;;;;;;;0.20;0.20;;;20.60;99.90;;;;;;5017930;28;20061;-77
2022/07/23 10:10:04;;;;;;;1.75;0.20;;;20.60;99.90;;;;;;5018245;28;20042;-77
2022/07/23 10:15:01;;;;;;;2.38;0.40;;;20.40;99.90;;;;;;5018204;28;20042;-77
2022/07/23 10:17:30;;;;;;;0.30;0.30;;;20.40;99.90;;;;;;5018207;28;20050;-77
2022/07/23 10:19:56;;;;;;;0.25;0.25;;;20.30;99.90;;;;;;5001674;28;20081;-77
2022/07/23 10:22:37;;;;;;;0.82;0.47;;;20.40;99.90;;;;;;5001747;28;20088;-77
2022/07/23 10:25:10;;;;;;;;;;;20.40;99.90;;;;;;5002046;28;20136;-76
2022/07/23 10:27:54;;;;;;;0.38;0.35;;;20.40;99.90;;;;;;5017959;28;19917;-79
2022/07/23 10:30:45;;;;;;;0.65;0.40;;;20.50;99.90;;;;;;5017840;28;20038;-77
2022/07/23 10:33:41;;;;;;;0.85;0.57;;;20.50;99.90;;;;;;5001400;28;20049;-77
2022/07/23 10:36:28;;;;;;;0.35;0.35;;;20.60;99.90;;;;;;5001390;28;20074;-76
2022/07/23 10:39:17;;;;;;;0.22;0.22;;;20.70;99.90;;;;;;5017781;28;20073;-76
2022/07/23 10:41:43;;;;;;;0.65;0.47;;;20.90;99.90;;;;;;5001444;28;20046;-76
2022/07/23 10:44:15;;;;;;;0.80;0.40;;;20.80;99.90;;;;;;5001598;28;20049;-76
2022/07/23 10:49:42;;;;;;;0.68;0.22;;;21.00;99.90;;;;;;4981556;28;20041;-76
2022/07/23 10:52:14;;;;;;;0.20;0.20;;;21.00;99.90;;;;;;4999317;28;20049;-77
2022/07/23 10:54:53;;;;;;;0.30;0.20;;;21.00;99.90;;;;;;5014512;28;20064;-77
2022/07/23 10:57:21;;;;;;;0.32;0.30;;;21.00;99.90;;;;;;4998249;28;20068;-77
2022/07/23 11:02:35;;;;;;;0.25;0.25;;;20.90;99.90;;;;;;5014412;28;20045;-76
2022/07/23 11:05:10;;;;;;;1.85;0.47;;;20.90;99.90;;;;;;4998260;28;20045;-77
2022/07/23 11:07:56;;;;;;;1.90;0.50;;;20.80;99.90;;;;;;5014523;28;20112;-76
2022/07/23 11:10:34;;;;;;;0.85;0.40;;;21.10;99.90;;;;;;4998034;28;20512;-76
2022/07/23 11:13:27;;;;;;;0.32;0.20;;;21.00;99.90;;;;;;5014344;28;20050;-76
2022/07/23 11:16:04;;;;;;;0.30;0.30;;;21.00;99.90;;;;;;4983474;28;20054;-76
2022/07/23 11:18:57;;;;;;;2.75;0.43;;;21.10;99.90;;;;;;5013990;28;20069;-76
2022/07/23 11:21:23;;;;;;;0.73;0.52;;;21.10;99.90;;;;;;5008755;28;20456;-77
2022/07/23 11:23:58;;;;;;;0.82;0.55;;;21.20;99.90;;;;;;5014160;28;20037;-77
2022/07/23 11:26:42;;;;;;;0.30;0.30;;;21.20;99.90;;;;;;5013927;28;20077;-76
2022/07/23 11:29:33;;;;;;;1.80;0.70;;;21.20;99.90;;;;;;5013802;28;20049;-76
2022/07/23 11:32:30;;;;;;;0.65;0.50;;;21.10;99.90;;;;;;5014095;28;20049;-77
2022/07/23 11:34:57;;;;;;;0.40;0.40;;;21.20;99.90;;;;;;5005539;28;20050;-76
2022/07/23 11:37:37;;;;;;;1.35;0.63;;;21.20;99.90;;;;;;4997600;28;20042;-77
2022/07/23 11:40:08;;;;;;;0.82;0.50;;;21.50;99.90;;;;;;4997206;28;20052;-76
2022/07/23 11:42:35;;;;;;;0.65;0.47;;;21.60;99.90;;;;;;5013684;28;20038;-76
2022/07/23 11:45:01;;;;;;;1.63;0.60;;;21.60;99.90;;;;;;4997384;28;20092;-76
2022/07/23 11:47:27;;;;;;;0.43;0.43;;;21.60;99.90;;;;;;4997634;28;20038;-76
2022/07/23 11:49:57;;;;;;;1.70;0.68;;;21.50;99.90;;;;;;5013475;28;20103;-76
2022/07/23 11:52:24;;;;;;;;;;;21.60;99.90;;;;;;5014119;28;20132;-76
2022/07/23 11:54:56;;;;;;;1.63;0.65;;;21.60;99.90;;;;;;4997426;28;19924;-76
2022/07/23 11:57:28;;;;;;;0.50;0.50;;;21.70;99.90;;;;;;4997310;28;20490;-76
2022/07/23 11:59:57;;;;;;;0.70;0.47;;;21.80;99.90;;;;;;4997212;28;20050;-76
2022/07/23 12:02:23;;;;;;;0.70;0.50;;;21.70;99.90;;;;;;4996649;28;20053;-76
2022/07/23 12:04:51;;;;;;;0.60;0.45;;;21.70;99.90;;;;;;4996675;28;20104;-76
2022/07/23 12:07:26;;;;;;;0.82;0.47;;;21.70;99.90;;;;;;5013373;28;20478;-76
2022/07/23 12:09:52;;;;;;;0.57;0.30;;;21.50;99.90;;;;;;4997114;28;20048;-76
2022/07/23 12:12:18;;;;;;;0.90;0.57;;;21.40;99.90;;;;;;5012954;28;20045;-76
2022/07/23 12:14:52;;;;;;;1.05;0.60;;;21.30;99.90;;;;;;5013149;28;20045;-76
2022/07/23 12:17:20;;;;;;;1.00;0.60;;;21.30;99.90;;;;;;4996882;28;20156;-76
2022/07/23 12:19:46;;;;;;;0.38;0.38;;;21.20;99.90;;;;;;4996846;28;20149;-76
2022/07/23 12:22:14;;;;;;;0.50;0.40;;;21.20;99.90;;;;;;5013274;28;20072;-76
2022/07/23 12:24:57;;;;;;;1.58;0.47;;;21.30;99.90;;;;;;4997182;28;20044;-76
2022/07/23 12:27:23;;;;;;;0.82;0.50;;;21.60;99.90;;;;;;5012947;28;20072;-77
2022/07/23 12:29:50;;;;;;;0.85;0.60;;;21.50;99.90;;;;;;4996865;28;20120;-76
2022/07/23 12:32:27;;;;;;;1.67;0.60;;;21.60;99.90;;;;;;5012828;28;20096;-76
2022/07/23 12:35:05;;;;;;;0.80;0.60;;;21.70;99.90;;;;;;5012751;28;20125;-76
2022/07/23 12:37:39;;;;;;;0.98;0.60;;;21.80;99.90;;;;;;4996418;28;20099;-76
2022/07/23 12:40:23;;;;;;;0.80;0.50;;;21.80;99.90;;;;;;5012664;28;20131;-77
2022/07/23 12:43:02;;;;;;;2.05;0.80;;;21.80;99.90;;;;;;5012480;28;20080;-76
2022/07/23 12:45:41;;;;;;;1.02;0.65;;;21.80;99.90;;;;;;5012675;28;20038;-76
2022/07/23 12:48:07;;;;;;;0.55;0.40;;;21.70;99.90;;;;;;5012524;28;20160;-76
2022/07/23 12:50:50;;;;;;;4.32;0.60;;;21.50;99.90;;;;;;4996288;28;20088;-76
2022/07/23 12:53:26;;;;;;;0.82;0.70;;;21.50;99.90;;;;;;4996108;28;20042;-77
2022/07/23 12:56:03;;;;;;;1.00;0.60;;;21.60;99.90;;;;;;4996364;28;20050;-76
2022/07/23 12:58:39;;;;;;;1.30;0.77;;;21.60;99.90;;;;;;4996311;28;20497;-76
2022/07/23 13:01:05;;;;;;;0.75;0.32;;;21.80;99.90;;;;;;5012511;28;20513;-77